KTUL/TUL METAR and TAF weather

Enter ICAO airport designator
Station Type Date Time Source
KTUL METAR 2020/07/14 05:53 UTC NOAA

KTUL 140553Z 13008KT 10SM FEW030 26/22 A2984 RMK AO2 SLP097 T02610217 10294 20261 403060206 58001


Station Type Date Time Source
KTUL Decoded METAR 2020/07/14 05:53 UTC NOAA

TULSA INTERNATIONAL AIRPORT, OK, United States (KTUL) 36-12N 95-53W 207M
Jul 14, 2020 - 01:53 AM EDT / 2020.07.14 0553 UTC
Wind: from the SE (130 degrees) at 9 MPH (8 KT):0
Visibility: 10 mile(s):0
Sky conditions: mostly clear
Temperature: 79.0 F (26.1 C)
Dew Point: 71.1 F (21.7 C)
Relative Humidity: 76%
Pressure (altimeter): 29.84 in. Hg (1010 hPa)
Pressure tendency: 0.00 inches (0.1 hPa) lower than three hours ago
ob: KTUL 140553Z 13008KT 10SM FEW030 26/22 A2984 RMK AO2 SLP097 T02610217 10294 20261 403060206 58001
cycle: 6

Station Type Date Time Source
KTUL TAF 2020/07/14 06:22 UTC NOAA

TAF KTUL 140520Z 1406/1506 12007KT P6SM SCT029 BKN035
TEMPO 1406/1407 BKN029
FM140900 15011KT P6SM SCT060 BKN150
FM141400 16014G22KT P6SM FEW100 BKN250
FM150100 16011KT P6SM SCT250

Example: see airport list